'tomaso' - 'Tomaso Greksák'

Prelezy

<< < 1 2345 > >>
Spolu 1324 v 14 stránkach.
. Cesta Obtiažnosť Štýl Oblasť Dátum Body  
1 La Totalité de l´Autre Toit 8A Solo Fontainebleau 21.11.2017 1000
2 Total Éclipse 8A+ Solo Fontainebleau 21.11.2017 1050
3 Ric Rac 7A Solo Fontainebleau 20.11.2017 700
4 Pokemon 7B+ Solo Fontainebleau 20.11.2017 850
5 Sa Pelle au Logis 7A Flash Fontainebleau 20.11.2017 700
6 l´Étrave á Sucre 7B+ Solo Fontainebleau 19.11.2017 850
7 Flipper assis 7A+ Solo Fontainebleau 13.11.2017 750
8 Dessinateur 7A+ Solo Fontainebleau 07.11.2017 750
9 Petit Tas Petit 7B+ Solo Fontainebleau 06.11.2017 850
10 le Proueptologue 7B Solo Fontainebleau 06.11.2017 800
11 Michel-Ange 7C Solo Fontainebleau 06.11.2017 900
12 le Krill 7A Flash Fontainebleau 06.11.2017 700
13 Maxx 7C+ Solo Fontainebleau 05.11.2017 950
14 Métamorphose 7B+ Solo Fontainebleau 03.11.2017 850
15 Métaphore 7B Solo Fontainebleau 03.11.2017 800
16 Moralisator 7A Flash Fontainebleau 03.11.2017 700
17 JCVD 7B+ Solo (2) Fontainebleau 02.11.2017 850
18 Boby (assis) 7A+ Solo (2) Fontainebleau 31.10.2017 750
19 Gengis Khan 7B+ Solo Fontainebleau 31.10.2017 850
20 le Porte du Temps 7A Flash Fontainebleau 31.10.2017 700
21 le Dragon de Komodo 7A+ Solo Fontainebleau 31.10.2017 750
22 le Sous-Plomb (direct) 7A Flash Fontainebleau 30.10.2017 700
23 le Bowling 7A+ Solo Fontainebleau 30.10.2017 750
24 l´Americain 7B Flash Fontainebleau 30.10.2017 800
25 Flipper assis droite 7A Flash Fontainebleau 30.10.2017 700
26 Pince-mi, Pince-moi 7B+ Solo Cuvier 25.07.2017 850
27 Compression Zip du Fond 7C+ Flash Fontainebleau 23.07.2017 950
28 Plumes au Vent 7A Solo Fontainebleau 23.07.2017 700
29 le Dagon de Komodo (droite) 7A+ Solo (2) Fontainebleau 23.07.2017 750
30 Makhnovtchina 7C Solo Fontainebleau 23.07.2017 900
31 L'?il de la Sybille 7C+ Solo Fontainebleau 21.07.2017 950
32 17-04 Orange Sheriff 7C Solo Zillertal - Ginzling Wald 08.07.2017 900
33 L'aquarium 7B+ Solo Chironico 05.07.2017 850
34 La Balance 7A Flash Val di mello 04.07.2017 700
35 Lady red plus 7C Solo Val di mello 04.07.2017 900
36 Lady red 7B Flash Val di mello 04.07.2017 800
37 Fontainebleau 7A+ OS Val di mello 04.07.2017 750
38 Aria Giovanni 7B Solo (3) Val di mello 04.07.2017 800
39 Superiore 7A Flash Val di mello 03.07.2017 700
40 Grandalbero stand 7B+ OS Val di mello 03.07.2017 850
41 Milano-Roma senza ritorno 7A Flash Val di mello 03.07.2017 700
42 Fat boy slim SD 7C Solo Val di mello 02.07.2017 900
43 Fat boy slim 7B Flash Val di mello 02.07.2017 800
44 I tre strapiombi dei veronesi 7A+ Flash Val di mello 02.07.2017 750
45 Masso de la grotta 7A Flash Val di mello 02.07.2017 700
46 Zero in condota 7A+ Flash Val di mello 02.07.2017 750
47 Trojkráľové limby 7 OS Mengusovská dolina 24.06.2017 500
48 Orgazmus po Erasme 7C+ Solo Zlomisková dolina 24.06.2017 950
49 Trpaslík 5C OS Zlomisková dolina 21.06.2017 300
50 Ivanov traverz 5C OS Zlomisková dolina 21.06.2017 300
51 Spoďák to je ďábel 7A OS Zlomisková dolina 21.06.2017 700
52 Hrana zúfalstva SD 7A+ Solo Zlomisková dolina 21.06.2017 750
53 Hrana zúfalstva 6C Flash Zlomisková dolina 21.06.2017 600
54 Step up! 6C Solo Zlomisková dolina 21.06.2017 600
55 Balkánska návšteva 6B+ OS Zlomisková dolina 21.06.2017 550
56 Holenný chránič 6C+ Solo Zlomisková dolina 21.06.2017 650
57 Vôňa kosodreviny 7B Solo Zlomisková dolina 21.06.2017 800
58 Machopád 5B OS Zlomisková dolina 20.06.2017 250
59 Vodopád 6A OS Zlomisková dolina 20.06.2017 400
60 Západný direkt 5A OS Zlomisková dolina 20.06.2017 225
61 Hrebeňovka zo západu 4B OS Zlomisková dolina 20.06.2017 100
62 Chladnička 6B OS Zlomisková dolina 20.06.2017 500
63 Hrebeňovka z východu 4B OS Zlomisková dolina 20.06.2017 100
64 Nohy vs. bicáky 6B OS Zlomisková dolina 20.06.2017 500
65 Pochod 4B OS Zlomisková dolina 20.06.2017 100
66 Zážitok 5B OS Zlomisková dolina 20.06.2017 250
67 Pôžitok 4B Solo Zlomisková dolina 20.06.2017 100
68 Zrkadlo 5C Solo Zlomisková dolina 20.06.2017 300
69 Hravá hranka 6A Flash Zlomisková dolina 20.06.2017 400
70 Skok dôvery 6C Solo Zlomisková dolina 20.06.2017 600
71 Štvorruký Joe 7B+ Solo Zlomisková dolina 20.06.2017 850
72 Špára 5A OS Zlomisková dolina 20.06.2017 225
73 Deň bez závislosti 4C OS Zlomisková dolina 20.06.2017 175
74 Drvený odpad 4B OS Zlomisková dolina 20.06.2017 100
75 Machodrom 6B OS Zlomisková dolina 20.06.2017 500
76 Plýživka 5B OS Zlomisková dolina 20.06.2017 250
77 Graf pripravenosti 6B OS Zlomisková dolina 20.06.2017 500
78 Levitácia 7A Solo Končitá 12.06.2017 700
79 Ozembuch 7C Solo Končitá 11.06.2017 900
80 Pochod Salamandier 6B Solo Končitá 11.06.2017 500
81 Neurotik 7A Solo (2) Malé skalky - Chtelnica 07.06.2017 700
82 Horski strelci 10- PP Alternatívna stena 04.06.2017 1050
83 Pätman SD 7A Flash Malé skalky - Chtelnica 31.05.2017 700
84 Kliešť SD 6C Solo (1) Malé skalky - Chtelnica 31.05.2017 600
85 Chrumky SD 6C Flash Malé skalky - Chtelnica 31.05.2017 600
86 Hviezdny hodinár 7A+ Solo Malé skalky - Chtelnica 27.05.2017 750
87 Óda na Siahu SD 7C+ Solo Malé skalky - Chtelnica 27.05.2017 950
88 Óda na bolesť SD 7C Solo Malé skalky - Chtelnica 27.05.2017 900
89 Vibrácia 7B+ Solo Malé skalky - Chtelnica 24.05.2017 850
90 135 7B Solo Malé skalky - Chtelnica 24.05.2017 800
91 Morfium 7b Solo (3) Malé skalky - Chtelnica 21.05.2017 800
92 Pán Boh zaplať 7A+ Solo (2) Malé skalky - Chtelnica 21.05.2017 750
93 Nočný spoj SD 7B+ Solo (4) Malé skalky - Chtelnica 21.05.2017 850
94 Dissidence 7B+ Solo Fontainebleau 13.05.2017 850
95 le Chainon Manquant 7C Solo Fontainebleau 08.05.2017 900
96 Sur-Prises assis 7C+ Solo Fontainebleau 05.05.2017 950
97 L´Ange Naif (droit) 7A+ Solo (2) Fontainebleau 04.05.2017 750
98 Futurs Barbares (dyno) 7C Solo Fontainebleau 04.05.2017 900
99 L´Ange Naif 7C Solo Fontainebleau 04.05.2017 900
100 le Mur des Lamentations 7B+ Solo Fontainebleau 30.04.2017 850
<< < 1 2345 > >>
Spolu 1324 v 14 stránkach.